createdAt,value
2023-04-01T00:00:21.151Z,11.05
2023-04-01T00:03:10.489Z,11.68
2023-04-01T00:06:00.868Z,11.95
2023-04-01T00:08:51.133Z,11.50
2023-04-01T00:11:40.194Z,12.20
2023-04-01T00:14:30.050Z,11.15
2023-04-01T00:17:19.080Z,11.55
2023-04-01T00:20:10.507Z,11.90
2023-04-01T00:22:59.717Z,11.50
2023-04-01T00:25:51.154Z,11.93
2023-04-01T00:28:39.927Z,12.05
2023-04-01T00:31:28.977Z,12.30
2023-04-01T00:34:18.178Z,11.75
2023-04-01T00:37:07.004Z,12.45
2023-04-01T00:39:57.343Z,12.60
2023-04-01T00:42:47.577Z,12.73
2023-04-01T00:45:39.201Z,12.82
2023-04-01T00:48:33.096Z,12.30
2023-04-01T00:51:26.005Z,13.48
2023-04-01T00:54:16.534Z,12.60
2023-04-01T00:57:09.521Z,12.90
2023-04-01T01:00:00.942Z,12.30
2023-04-01T01:02:53.075Z,12.48
2023-04-01T01:06:00.324Z,12.48
2023-04-01T01:09:08.642Z,12.68
2023-04-01T01:12:04.964Z,13.15
2023-04-01T01:15:04.010Z,12.77
2023-04-01T01:18:01.150Z,13.27
2023-04-01T01:21:05.741Z,14.70
2023-04-01T01:24:21.630Z,14.32
2023-04-01T01:27:12.740Z,14.32
2023-04-01T01:30:28.508Z,14.77
2023-04-01T01:33:56.027Z,15.43
2023-04-01T01:36:54.446Z,14.48
2023-04-01T01:39:46.417Z,16.55
2023-04-01T01:42:39.524Z,15.25
2023-04-01T01:45:29.851Z,15.82
2023-04-01T01:48:23.638Z,15.68
2023-04-01T01:51:12.476Z,15.85
2023-04-01T01:54:02.631Z,15.00
2023-04-01T01:57:04.139Z,14.35
2023-04-01T01:59:59.002Z,14.10
2023-04-01T02:02:52.055Z,14.88
2023-04-01T02:05:42.437Z,13.85
2023-04-01T02:08:37.239Z,13.38
2023-04-01T02:11:31.415Z,14.60
2023-04-01T02:14:23.800Z,14.93
2023-04-01T02:17:15.544Z,13.57
2023-04-01T02:20:09.899Z,14.25
2023-04-01T02:23:01.119Z,14.48
2023-04-01T02:25:50.167Z,14.75
2023-04-01T02:28:42.064Z,15.02
2023-04-01T02:31:31.139Z,15.88
2023-04-01T02:34:20.523Z,14.15
2023-04-01T02:37:09.632Z,15.80
2023-04-01T02:40:02.434Z,15.23
2023-04-01T02:42:51.738Z,15.20
2023-04-01T02:45:41.933Z,15.82
2023-04-01T02:48:30.938Z,16.58
2023-04-01T02:51:23.290Z,16.33
2023-04-01T02:54:11.929Z,16.70
2023-04-01T02:57:01.010Z,17.60
2023-04-01T02:59:49.862Z,17.55
2023-04-01T03:02:40.891Z,18.25
2023-04-01T03:05:29.768Z,18.02
2023-04-01T03:08:18.576Z,18.52
2023-04-01T03:11:07.918Z,18.40
2023-04-01T03:14:02.232Z,18.58
2023-04-01T03:16:51.014Z,20.00
2023-04-01T03:19:44.533Z,19.65
2023-04-01T03:22:34.152Z,19.55
2023-04-01T03:25:23.263Z,20.75
2023-04-01T03:28:13.553Z,22.17
2023-04-01T03:31:02.522Z,20.55
2023-04-01T03:33:55.383Z,20.38
2023-04-01T03:36:46.300Z,20.23
2023-04-01T03:39:36.117Z,18.58
2023-04-01T03:42:25.006Z,18.90
2023-04-01T03:45:14.223Z,17.98
2023-04-01T03:48:03.336Z,18.55
2023-04-01T03:50:52.441Z,18.20
2023-04-01T03:53:43.603Z,18.23
2023-04-01T03:56:32.684Z,18.48
2023-04-01T03:59:21.417Z,18.83
2023-04-01T04:02:10.941Z,18.30
2023-04-01T04:05:00.168Z,17.65
2023-04-01T04:07:51.050Z,18.25
2023-04-01T04:10:42.331Z,18.63
2023-04-01T04:13:31.162Z,17.83
2023-04-01T04:16:26.358Z,17.73
2023-04-01T04:19:21.806Z,18.50
2023-04-01T04:22:11.199Z,17.80
2023-04-01T04:24:59.921Z,17.25
2023-04-01T04:27:50.564Z,16.25
2023-04-01T04:30:39.679Z,16.67
2023-04-01T04:33:29.160Z,15.45
2023-04-01T04:36:18.392Z,16.10
2023-04-01T04:39:07.620Z,15.52
2023-04-01T04:41:59.194Z,15.55
2023-04-01T04:44:49.612Z,15.20
2023-04-01T04:47:38.422Z,14.98
2023-04-01T04:50:27.562Z,14.50
2023-04-01T04:53:17.848Z,12.77
2023-04-01T04:56:10.424Z,13.68
2023-04-01T04:59:09.228Z,13.18
2023-04-01T05:02:08.872Z,13.13
2023-04-01T05:04:57.857Z,12.60
2023-04-01T05:07:46.966Z,12.30
2023-04-01T05:10:35.855Z,12.50
2023-04-01T05:13:25.413Z,12.30
2023-04-01T05:16:16.201Z,11.77
2023-04-01T05:19:06.584Z,11.68
2023-04-01T05:21:55.644Z,11.57
2023-04-01T05:24:44.593Z,11.07
2023-04-01T05:27:37.740Z,11.73
2023-04-01T05:30:27.202Z,14.43
2023-04-01T05:33:45.062Z,11.20
2023-04-01T05:36:36.755Z,11.48
2023-04-01T05:39:26.220Z,10.43
2023-04-01T05:42:16.973Z,10.88
2023-04-01T05:45:06.717Z,11.00
2023-04-01T05:48:30.662Z,10.73
2023-04-01T05:51:20.170Z,10.40
2023-04-01T05:54:10.345Z,11.35
2023-04-01T05:57:00.168Z,11.27
2023-04-01T05:59:49.276Z,11.15
2023-04-01T06:02:38.763Z,11.70
2023-04-01T06:05:31.831Z,10.90
2023-04-01T06:08:21.391Z,11.05
2023-04-01T06:11:24.338Z,10.80
2023-04-01T06:14:25.820Z,10.93
2023-04-01T06:17:32.463Z,11.00
2023-04-01T06:20:32.868Z,11.93
2023-04-01T06:23:35.329Z,11.85
2023-04-01T06:26:38.106Z,12.60
2023-04-01T06:29:51.350Z,12.57
2023-04-01T06:33:03.134Z,12.65
2023-04-01T06:36:10.923Z,14.38
2023-04-01T06:39:11.590Z,14.77
2023-04-01T06:42:43.972Z,16.00
2023-04-01T06:45:58.666Z,16.05
2023-04-01T06:49:19.576Z,17.02
2023-04-01T06:52:31.391Z,16.38
2023-04-01T06:55:43.564Z,17.60
2023-04-01T06:59:12.173Z,17.98
2023-04-01T07:02:05.801Z,17.88
2023-04-01T07:04:57.717Z,18.75
2023-04-01T07:07:50.551Z,17.80
2023-04-01T07:10:47.533Z,17.10
2023-04-01T07:13:57.648Z,17.85
2023-04-01T07:16:51.561Z,17.30
2023-04-01T07:19:46.901Z,17.08
2023-04-01T07:22:38.944Z,17.85
2023-04-01T07:25:42.268Z,18.30
2023-04-01T07:28:54.874Z,21.52
2023-04-01T07:32:32.248Z,20.73
2023-04-01T07:35:29.645Z,22.42
2023-04-01T07:38:29.186Z,23.02
2023-04-01T07:41:26.746Z,24.50
2023-04-01T07:44:20.920Z,24.38
2023-04-01T07:47:36.204Z,22.90
2023-04-01T07:50:29.732Z,22.83
2023-04-01T07:53:25.869Z,22.42
2023-04-01T07:56:21.741Z,22.27
2023-04-01T07:59:20.672Z,19.60
2023-04-01T08:02:35.595Z,19.17
2023-04-01T08:05:30.496Z,22.35
2023-04-01T08:08:31.696Z,20.20
2023-04-01T08:11:43.487Z,21.70
2023-04-01T08:15:01.270Z,19.92
2023-04-01T08:18:25.588Z,21.30
2023-04-01T08:21:24.448Z,18.30
2023-04-01T08:24:26.216Z,16.98
2023-04-01T08:27:21.372Z,17.08
2023-04-01T08:30:21.192Z,13.52
2023-04-01T08:33:18.012Z,14.07
2023-04-01T08:36:12.833Z,14.88
2023-04-01T08:39:10.568Z,13.93
2023-04-01T08:42:22.963Z,15.38
2023-04-01T08:45:43.612Z,15.77
2023-04-01T08:49:03.345Z,14.35
2023-04-01T08:52:20.987Z,14.02
2023-04-01T08:55:34.289Z,13.70
2023-04-01T08:58:53.094Z,13.93
2023-04-01T09:02:11.932Z,14.55
2023-04-01T09:05:31.692Z,12.52
2023-04-01T09:08:36.187Z,10.43
2023-04-01T09:11:46.135Z,8.70
2023-04-01T09:15:15.330Z,8.80
2023-04-01T09:18:48.209Z,7.70
2023-04-01T09:22:02.070Z,7.82
2023-04-01T09:25:41.487Z,8.20
2023-04-01T09:28:44.025Z,9.43
2023-04-01T09:31:49.646Z,9.30
2023-04-01T09:34:57.348Z,9.65
2023-04-01T09:38:14.101Z,10.70
2023-04-01T09:41:13.694Z,11.32
2023-04-01T09:44:37.088Z,8.95
2023-04-01T09:47:50.422Z,3.97
2023-04-01T09:50:50.355Z,4.28
2023-04-01T09:54:02.712Z,11.50
2023-04-01T09:57:38.949Z,4.22
2023-04-01T10:00:57.808Z,4.35
2023-04-01T10:04:27.385Z,4.95
2023-04-01T10:07:57.884Z,5.78
2023-04-01T10:11:17.958Z,6.40
2023-04-01T10:14:36.745Z,5.75
2023-04-01T10:17:52.220Z,5.80
2023-04-01T10:21:18.979Z,5.68
2023-04-01T10:24:47.033Z,5.90
2023-04-01T10:28:02.341Z,5.68
2023-04-01T10:32:04.979Z,4.93
2023-04-01T10:35:26.217Z,4.60
2023-04-01T10:38:48.191Z,5.18
2023-04-01T10:42:13.117Z,5.40
2023-04-01T10:46:13.692Z,5.22
2023-04-01T10:49:48.822Z,6.05
2023-04-01T10:53:21.982Z,5.13
2023-04-01T10:56:56.592Z,5.25
2023-04-01T11:00:58.609Z,4.70
2023-04-01T11:04:45.310Z,4.55
2023-04-01T11:08:22.347Z,4.57
2023-04-01T11:11:56.895Z,5.10
2023-04-01T11:15:37.707Z,4.30
2023-04-01T11:19:07.610Z,4.25
2023-04-01T11:22:26.976Z,3.97
2023-04-01T11:25:49.879Z,4.50
2023-04-01T11:29:49.707Z,3.80
2023-04-01T11:32:59.902Z,4.20
2023-04-01T11:36:14.080Z,4.35
2023-04-01T11:39:25.211Z,4.90
2023-04-01T11:42:42.485Z,5.20
2023-04-01T11:45:58.216Z,5.47
2023-04-01T11:48:58.607Z,5.88
2023-04-01T11:52:06.987Z,6.25
2023-04-01T11:55:21.310Z,6.30
2023-04-01T11:58:45.202Z,7.10
2023-04-01T12:01:45.593Z,7.25
2023-04-01T12:05:11.169Z,7.38
2023-04-01T12:08:12.703Z,7.57
2023-04-01T12:11:10.538Z,5.35
2023-04-01T12:14:07.752Z,5.43
2023-04-01T12:17:05.723Z,4.63
2023-04-01T12:20:01.187Z,3.30
2023-04-01T12:23:01.652Z,2.83
2023-04-01T12:26:20.055Z,3.00
2023-04-01T12:29:31.104Z,2.17
2023-04-01T12:32:32.460Z,1.90
2023-04-01T12:35:25.931Z,2.85
2023-04-01T12:38:25.419Z,2.30
2023-04-01T12:41:26.725Z,2.30
2023-04-01T12:44:37.013Z,2.63
2023-04-01T12:47:46.528Z,2.90
2023-04-01T12:50:51.040Z,3.88
2023-04-01T12:53:51.882Z,4.05
2023-04-01T12:56:57.147Z,3.97
2023-04-01T13:00:05.833Z,3.55
2023-04-01T13:03:12.774Z,4.50
2023-04-01T13:06:34.686Z,4.10
2023-04-01T13:09:34.828Z,4.10
2023-04-01T13:12:39.843Z,3.80
2023-04-01T13:15:34.888Z,3.95
2023-04-01T13:18:31.952Z,4.25
2023-04-01T13:21:29.793Z,3.88
2023-04-01T13:24:33.810Z,4.15
2023-04-01T13:27:32.582Z,4.10
2023-04-01T13:30:29.573Z,4.13
2023-04-01T13:33:29.618Z,4.25
2023-04-01T13:36:34.015Z,4.65
2023-04-01T13:39:38.265Z,3.58
2023-04-01T13:42:41.233Z,2.92
2023-04-01T13:45:38.848Z,2.63
2023-04-01T13:48:45.139Z,2.75
2023-04-01T13:52:08.591Z,3.20
2023-04-01T13:55:29.774Z,3.22
2023-04-01T13:58:52.729Z,3.05
2023-04-01T14:01:44.639Z,2.80
2023-04-01T14:04:59.123Z,3.35
2023-04-01T14:08:02.707Z,2.60
2023-04-01T14:11:01.597Z,2.85
2023-04-01T14:14:02.314Z,3.22
2023-04-01T14:17:26.695Z,2.70
2023-04-01T14:20:42.664Z,3.10
2023-04-01T14:23:52.197Z,2.95
2023-04-01T14:27:03.777Z,3.20
2023-04-01T14:30:08.392Z,4.68
2023-04-01T14:33:05.309Z,5.05
2023-04-01T14:36:06.508Z,3.58
2023-04-01T14:39:07.417Z,2.78
2023-04-01T14:42:21.666Z,2.60
2023-04-01T14:45:36.452Z,2.10
2023-04-01T14:48:30.056Z,1.70
2023-04-01T14:51:23.224Z,1.95
2023-04-01T14:54:24.121Z,2.25
2023-04-01T14:57:15.501Z,2.38
2023-04-01T15:00:16.422Z,3.10
2023-04-01T15:03:17.325Z,3.03
2023-04-01T15:06:36.847Z,1.90
2023-04-01T15:09:36.302Z,1.70
2023-04-01T15:12:32.385Z,1.40
2023-04-01T15:15:33.515Z,1.42
2023-04-01T15:18:33.998Z,1.65
2023-04-01T15:21:46.908Z,1.95
2023-04-01T15:24:47.373Z,1.77
2023-04-01T15:27:45.354Z,2.20
2023-04-01T15:30:42.472Z,2.10
2023-04-01T15:33:46.908Z,2.50
2023-04-01T15:36:43.511Z,1.90
2023-04-01T15:39:47.162Z,1.80
2023-04-01T15:42:53.131Z,1.98
2023-04-01T15:45:55.127Z,1.67
2023-04-01T15:49:05.900Z,1.60
2023-04-01T15:52:08.646Z,1.88
2023-04-01T15:55:17.616Z,1.40
2023-04-01T15:58:30.834Z,1.40
2023-04-01T16:01:31.393Z,1.42
2023-04-01T16:04:39.959Z,1.90
2023-04-01T16:07:45.597Z,1.80
2023-04-01T16:10:46.633Z,1.73
2023-04-01T16:13:48.707Z,2.00
2023-04-01T16:16:53.828Z,2.10
2023-04-01T16:19:54.715Z,2.03
2023-04-01T16:22:51.510Z,2.50
2023-04-01T16:25:44.034Z,2.58
2023-04-01T16:28:36.954Z,2.55
2023-04-01T16:31:37.065Z,2.60
2023-04-01T16:34:32.873Z,2.38
2023-04-01T16:37:31.156Z,2.63
2023-04-01T16:40:38.737Z,2.35
2023-04-01T16:43:32.236Z,2.40
2023-04-01T16:46:33.234Z,2.78
2023-04-01T16:49:42.208Z,2.20
2023-04-01T16:52:45.978Z,2.47
2023-04-01T16:55:47.081Z,1.60
2023-04-01T16:58:38.573Z,1.40
2023-04-01T17:01:32.610Z,1.80
2023-04-01T17:04:30.465Z,1.63
2023-04-01T17:07:39.269Z,1.60
2023-04-01T17:10:53.740Z,1.80
2023-04-01T17:13:51.556Z,1.65
2023-04-01T17:17:08.773Z,1.95
2023-04-01T17:20:17.384Z,2.10
2023-04-01T17:23:21.100Z,2.75
2023-04-01T17:26:23.281Z,2.13
2023-04-01T17:29:24.860Z,2.03
2023-04-01T17:32:22.157Z,2.45
2023-04-01T17:35:23.580Z,2.58
2023-04-01T17:38:24.012Z,2.40
2023-04-01T17:41:26.596Z,3.15
2023-04-01T17:44:28.313Z,2.72
2023-04-01T17:47:32.213Z,3.00
2023-04-01T17:50:32.459Z,3.03
2023-04-01T17:53:33.841Z,3.70
2023-04-01T17:56:36.533Z,4.13
2023-04-01T17:59:35.159Z,6.95
2023-04-01T18:02:33.112Z,8.38
2023-04-01T18:05:33.272Z,7.93
2023-04-01T18:08:34.145Z,8.52
2023-04-01T18:11:36.268Z,7.60
2023-04-01T18:15:04.646Z,8.48
2023-04-01T18:18:07.113Z,9.98
2023-04-01T18:21:02.644Z,10.23
2023-04-01T18:24:02.237Z,10.02
2023-04-01T18:27:04.465Z,10.32
2023-04-01T18:29:57.321Z,9.90
2023-04-01T18:32:51.839Z,10.02
2023-04-01T18:35:52.966Z,10.27
2023-04-01T18:38:48.523Z,11.32
2023-04-01T18:41:42.927Z,12.45
2023-04-01T18:44:47.642Z,12.18
2023-04-01T18:47:47.018Z,12.35
2023-04-01T18:50:40.983Z,12.38
2023-04-01T18:53:40.653Z,11.23
2023-04-01T18:56:36.727Z,10.27
2023-04-01T18:59:37.019Z,11.90
2023-04-01T19:02:45.592Z,11.88
2023-04-01T19:05:36.366Z,13.20
2023-04-01T19:08:30.998Z,11.98
2023-04-01T19:11:29.219Z,13.38
2023-04-01T19:14:26.379Z,12.35
2023-04-01T19:17:32.096Z,12.10
2023-04-01T19:20:28.275Z,13.27
2023-04-01T19:23:55.529Z,14.27
2023-04-01T19:26:49.681Z,12.93
2023-04-01T19:29:57.269Z,13.05
2023-04-01T19:32:55.064Z,13.05
2023-04-01T19:35:50.452Z,14.27
2023-04-01T19:38:41.449Z,12.52
2023-04-01T19:41:39.000Z,12.65
2023-04-01T19:44:37.908Z,13.05
2023-04-01T19:47:41.356Z,12.43
2023-04-01T19:50:38.118Z,12.45
2023-04-01T19:53:35.106Z,11.82
2023-04-01T19:56:27.395Z,12.27
2023-04-01T19:59:22.153Z,12.25
2023-04-01T20:02:42.330Z,12.20
2023-04-01T20:05:57.032Z,11.38
2023-04-01T20:08:57.481Z,11.20
2023-04-01T20:11:58.148Z,9.77
2023-04-01T20:14:52.144Z,10.10
2023-04-01T20:17:47.172Z,8.57
2023-04-01T20:20:40.849Z,8.90
2023-04-01T20:23:46.228Z,8.68
2023-04-01T20:26:40.651Z,11.10
2023-04-01T20:30:01.085Z,10.35
2023-04-01T20:33:09.030Z,11.70
2023-04-01T20:36:12.042Z,12.35
2023-04-01T20:39:29.171Z,13.75
2023-04-01T20:42:50.603Z,13.68
2023-04-01T20:45:57.723Z,16.38
2023-04-01T20:49:22.065Z,14.48
2023-04-01T20:52:39.816Z,15.50
2023-04-01T20:55:59.490Z,15.00
2023-04-01T20:58:57.159Z,13.75
2023-04-01T21:02:03.320Z,11.00
2023-04-01T21:05:21.666Z,11.00
2023-04-01T21:08:17.465Z,8.60
2023-04-01T21:11:15.855Z,9.35
2023-04-01T21:14:34.539Z,10.80
2023-04-01T21:17:41.313Z,12.30
2023-04-01T21:20:59.215Z,11.55
2023-04-01T21:24:05.498Z,11.00
2023-04-01T21:27:03.664Z,9.38
2023-04-01T21:30:01.289Z,9.70
2023-04-01T21:33:07.298Z,10.52
2023-04-01T21:36:06.079Z,11.65
2023-04-01T21:39:09.282Z,11.20
2023-04-01T21:42:12.632Z,11.00
2023-04-01T21:45:18.627Z,9.52
2023-04-01T21:48:38.544Z,9.23
2023-04-01T21:51:58.704Z,8.32
2023-04-01T21:55:35.890Z,8.93
2023-04-01T21:58:54.249Z,8.30
2023-04-01T22:02:12.903Z,7.93
2023-04-01T22:05:09.678Z,7.32
2023-04-01T22:08:08.761Z,6.60
2023-04-01T22:11:05.843Z,6.63
2023-04-01T22:14:01.148Z,6.00
2023-04-01T22:16:55.817Z,6.60
2023-04-01T22:19:54.202Z,6.10
2023-04-01T22:23:01.103Z,6.05
2023-04-01T22:25:56.488Z,5.97
2023-04-01T22:28:55.807Z,6.05
2023-04-01T22:31:50.599Z,5.68
2023-04-01T22:34:49.179Z,5.70
2023-04-01T22:37:47.292Z,5.63
2023-04-01T22:40:44.232Z,5.63
2023-04-01T22:43:40.293Z,5.25
2023-04-01T22:46:45.432Z,4.43
2023-04-01T22:49:41.161Z,5.13
2023-04-01T22:52:37.963Z,4.90
2023-04-01T22:55:35.912Z,4.47
2023-04-01T22:58:33.369Z,4.63
2023-04-01T23:01:26.713Z,4.90
2023-04-01T23:04:19.291Z,5.15
2023-04-01T23:07:26.772Z,5.15
2023-04-01T23:10:22.215Z,5.15
2023-04-01T23:13:16.738Z,5.55
2023-04-01T23:16:09.309Z,6.07
2023-04-01T23:19:03.328Z,6.30
2023-04-01T23:21:56.370Z,6.40
2023-04-01T23:24:52.596Z,5.75
2023-04-01T23:27:45.852Z,5.72
2023-04-01T23:30:51.721Z,5.40
2023-04-01T23:33:41.952Z,5.68
2023-04-01T23:36:33.947Z,5.40
2023-04-01T23:39:26.557Z,5.72
2023-04-01T23:42:20.784Z,6.03
2023-04-01T23:45:18.440Z,5.45
2023-04-01T23:48:08.667Z,5.43
2023-04-01T23:51:00.353Z,5.53
2023-04-01T23:53:57.401Z,5.30
2023-04-01T23:56:48.729Z,5.18
2023-04-01T23:59:39.023Z,5.40
